KDXR/DXR METAR and TAF weather

Enter ICAO airport designator
Station Type Date Time Source
KDXR METAR 2022/08/16 17:53 UTC NOAA

KDXR 161753Z 08012G22KT 10SM FEW065 28/10 A3003 RMK AO2 SLP166 T02780100 10283 20178 58008


Station Type Date Time Source
KDXR Decoded METAR 2022/08/16 17:53 UTC NOAA

DANBURY MUNICIPAL AIRPORT, CT, United States (KDXR) 41-22N 073-29W 139M
Aug 16, 2022 - 01:53 PM EDT / 2022.08.16 1753 UTC
Wind: from the E (080 degrees) at 14 MPH (12 KT) gusting to 25 MPH (22 KT):0
Visibility: 10 mile(s):0
Sky conditions: mostly clear
Temperature: 82.0 F (27.8 C)
Dew Point: 50.0 F (10.0 C)
Relative Humidity: 32%
Pressure (altimeter): 30.03 in. Hg (1016 hPa)
Pressure tendency: 0.02 inches (0.8 hPa) lower than three hours ago
ob: KDXR 161753Z 08012G22KT 10SM FEW065 28/10 A3003 RMK AO2 SLP166 T02780100 10283 20178 58008
cycle: 18

Station Type Date Time Source
KDXR TAF UTC NOAA

Error!

Example: see airport list